sensor_id;sensor_type;location;lat;lon;timestamp;temperature;humidity
22185;DHT22;11258;52.516;13.318;2023-04-01T00:02:18;10.90;99.90
22185;DHT22;11258;52.516;13.318;2023-04-01T00:04:44;10.90;99.90
22185;DHT22;11258;52.516;13.318;2023-04-01T00:07:11;10.90;99.90
22185;DHT22;11258;52.516;13.318;2023-04-01T00:09:36;10.90;99.90
22185;DHT22;11258;52.516;13.318;2023-04-01T00:12:03;10.90;99.90
22185;DHT22;11258;52.516;13.318;2023-04-01T00:14:28;10.90;99.90
22185;DHT22;11258;52.516;13.318;2023-04-01T00:16:55;10.90;99.90
22185;DHT22;11258;52.516;13.318;2023-04-01T00:19:20;10.90;99.90
22185;DHT22;11258;52.516;13.318;2023-04-01T00:21:46;10.90;99.90
22185;DHT22;11258;52.516;13.318;2023-04-01T00:24:12;10.90;99.90
22185;DHT22;11258;52.516;13.318;2023-04-01T00:26:37;10.80;99.90
22185;DHT22;11258;52.516;13.318;2023-04-01T00:29:03;10.90;99.90
22185;DHT22;11258;52.516;13.318;2023-04-01T00:31:28;10.90;99.90
22185;DHT22;11258;52.516;13.318;2023-04-01T00:33:55;10.90;99.90
22185;DHT22;11258;52.516;13.318;2023-04-01T00:36:22;10.90;99.90
22185;DHT22;11258;52.516;13.318;2023-04-01T00:38:49;10.90;99.90
22185;DHT22;11258;52.516;13.318;2023-04-01T00:41:15;10.90;99.90
22185;DHT22;11258;52.516;13.318;2023-04-01T00:43:43;10.90;99.90
22185;DHT22;11258;52.516;13.318;2023-04-01T00:46:09;10.90;99.90
22185;DHT22;11258;52.516;13.318;2023-04-01T00:48:38;10.90;99.90
22185;DHT22;11258;52.516;13.318;2023-04-01T00:51:07;10.90;99.90
22185;DHT22;11258;52.516;13.318;2023-04-01T00:53:38;10.80;99.90
22185;DHT22;11258;52.516;13.318;2023-04-01T00:56:15;10.80;99.90
22185;DHT22;11258;52.516;13.318;2023-04-01T00:58:47;10.90;99.90
22185;DHT22;11258;52.516;13.318;2023-04-01T01:01:15;10.90;99.90
22185;DHT22;11258;52.516;13.318;2023-04-01T01:03:40;10.90;99.90
22185;DHT22;11258;52.516;13.318;2023-04-01T01:12:02;10.80;99.90
22185;DHT22;11258;52.516;13.318;2023-04-01T01:20:29;10.90;99.90
22185;DHT22;11258;52.516;13.318;2023-04-01T01:23:12;10.90;99.90
22185;DHT22;11258;52.516;13.318;2023-04-01T01:31:34;10.80;99.90
22185;DHT22;11258;52.516;13.318;2023-04-01T01:36:31;10.80;99.90
22185;DHT22;11258;52.516;13.318;2023-04-01T01:39:02;10.80;99.90
22185;DHT22;11258;52.516;13.318;2023-04-01T01:41:29;10.80;99.90
22185;DHT22;11258;52.516;13.318;2023-04-01T01:43:56;10.80;99.90
22185;DHT22;11258;52.516;13.318;2023-04-01T01:46:25;10.80;99.90
22185;DHT22;11258;52.516;13.318;2023-04-01T01:48:52;10.90;99.90
22185;DHT22;11258;52.516;13.318;2023-04-01T01:51:20;10.80;99.90
22185;DHT22;11258;52.516;13.318;2023-04-01T01:53:47;10.80;99.90
22185;DHT22;11258;52.516;13.318;2023-04-01T01:56:12;10.80;99.90
22185;DHT22;11258;52.516;13.318;2023-04-01T01:58:47;10.80;99.90
22185;DHT22;11258;52.516;13.318;2023-04-01T02:01:26;10.80;99.90
22185;DHT22;11258;52.516;13.318;2023-04-01T02:03:53;10.70;99.90
22185;DHT22;11258;52.516;13.318;2023-04-01T02:06:22;10.70;99.90
22185;DHT22;11258;52.516;13.318;2023-04-01T02:09:01;10.70;99.90
22185;DHT22;11258;52.516;13.318;2023-04-01T02:11:58;10.80;99.90
22185;DHT22;11258;52.516;13.318;2023-04-01T02:17:19;10.70;99.90
22185;DHT22;11258;52.516;13.318;2023-04-01T02:22:23;10.70;99.90
22185;DHT22;11258;52.516;13.318;2023-04-01T02:24:52;10.80;99.90
22185;DHT22;11258;52.516;13.318;2023-04-01T02:27:20;10.80;99.90
22185;DHT22;11258;52.516;13.318;2023-04-01T02:29:45;10.80;99.90
22185;DHT22;11258;52.516;13.318;2023-04-01T02:32:13;10.80;99.90
22185;DHT22;11258;52.516;13.318;2023-04-01T02:34:39;10.80;99.90
22185;DHT22;11258;52.516;13.318;2023-04-01T02:37:06;10.80;99.90
22185;DHT22;11258;52.516;13.318;2023-04-01T02:39:31;10.80;99.90
22185;DHT22;11258;52.516;13.318;2023-04-01T02:41:57;10.80;99.90
22185;DHT22;11258;52.516;13.318;2023-04-01T02:44:23;10.80;99.90
22185;DHT22;11258;52.516;13.318;2023-04-01T02:46:48;10.70;99.90
22185;DHT22;11258;52.516;13.318;2023-04-01T02:49:14;10.70;99.90
22185;DHT22;11258;52.516;13.318;2023-04-01T02:51:40;10.60;99.90
22185;DHT22;11258;52.516;13.318;2023-04-01T02:54:05;10.60;99.90
22185;DHT22;11258;52.516;13.318;2023-04-01T02:56:31;10.70;99.90
22185;DHT22;11258;52.516;13.318;2023-04-01T02:58:57;10.70;99.90
22185;DHT22;11258;52.516;13.318;2023-04-01T03:01:22;10.70;99.90
22185;DHT22;11258;52.516;13.318;2023-04-01T03:03:48;10.70;99.90
22185;DHT22;11258;52.516;13.318;2023-04-01T03:06:15;10.70;99.90
22185;DHT22;11258;52.516;13.318;2023-04-01T03:08:41;10.70;99.90
22185;DHT22;11258;52.516;13.318;2023-04-01T03:11:07;10.60;99.90
22185;DHT22;11258;52.516;13.318;2023-04-01T03:13:32;10.70;99.90
22185;DHT22;11258;52.516;13.318;2023-04-01T03:15:58;10.60;99.90
22185;DHT22;11258;52.516;13.318;2023-04-01T03:18:24;10.70;99.90
22185;DHT22;11258;52.516;13.318;2023-04-01T03:20:49;10.70;99.90
22185;DHT22;11258;52.516;13.318;2023-04-01T03:23:15;10.60;99.90
22185;DHT22;11258;52.516;13.318;2023-04-01T03:25:43;10.70;99.90
22185;DHT22;11258;52.516;13.318;2023-04-01T03:28:09;10.70;99.90
22185;DHT22;11258;52.516;13.318;2023-04-01T03:30:35;10.70;99.90
22185;DHT22;11258;52.516;13.318;2023-04-01T03:33:01;10.70;99.90
22185;DHT22;11258;52.516;13.318;2023-04-01T03:35:27;10.70;99.90
22185;DHT22;11258;52.516;13.318;2023-04-01T03:37:53;10.70;99.90
22185;DHT22;11258;52.516;13.318;2023-04-01T03:40:20;10.70;99.90
22185;DHT22;11258;52.516;13.318;2023-04-01T03:42:46;10.70;99.90
22185;DHT22;11258;52.516;13.318;2023-04-01T03:45:11;10.70;99.90
22185;DHT22;11258;52.516;13.318;2023-04-01T03:47:38;10.60;99.90
22185;DHT22;11258;52.516;13.318;2023-04-01T03:50:05;10.70;99.90
22185;DHT22;11258;52.516;13.318;2023-04-01T03:52:31;10.70;99.90
22185;DHT22;11258;52.516;13.318;2023-04-01T03:54:57;10.70;99.90
22185;DHT22;11258;52.516;13.318;2023-04-01T03:57:22;10.70;99.90
22185;DHT22;11258;52.516;13.318;2023-04-01T03:59:48;10.70;99.90
22185;DHT22;11258;52.516;13.318;2023-04-01T04:02:13;10.70;99.90
22185;DHT22;11258;52.516;13.318;2023-04-01T04:04:39;10.70;99.90
22185;DHT22;11258;52.516;13.318;2023-04-01T04:07:06;10.70;99.90
22185;DHT22;11258;52.516;13.318;2023-04-01T04:09:32;10.80;99.90
22185;DHT22;11258;52.516;13.318;2023-04-01T04:11:58;10.70;99.90
22185;DHT22;11258;52.516;13.318;2023-04-01T04:14:24;10.70;99.90
22185;DHT22;11258;52.516;13.318;2023-04-01T04:16:50;10.70;99.90
22185;DHT22;11258;52.516;13.318;2023-04-01T04:19:16;10.80;99.90
22185;DHT22;11258;52.516;13.318;2023-04-01T04:21:41;10.70;99.90
22185;DHT22;11258;52.516;13.318;2023-04-01T04:24:08;10.70;99.90
22185;DHT22;11258;52.516;13.318;2023-04-01T04:26:33;10.70;99.90
22185;DHT22;11258;52.516;13.318;2023-04-01T04:29:00;10.70;99.90
22185;DHT22;11258;52.516;13.318;2023-04-01T04:31:26;10.70;99.90
22185;DHT22;11258;52.516;13.318;2023-04-01T04:33:52;10.70;99.90
22185;DHT22;11258;52.516;13.318;2023-04-01T04:36:19;10.70;99.90
22185;DHT22;11258;52.516;13.318;2023-04-01T04:38:46;10.70;99.90
22185;DHT22;11258;52.516;13.318;2023-04-01T04:41:16;10.70;99.90
22185;DHT22;11258;52.516;13.318;2023-04-01T04:43:49;10.70;99.90
22185;DHT22;11258;52.516;13.318;2023-04-01T04:46:15;10.70;99.90
22185;DHT22;11258;52.516;13.318;2023-04-01T04:48:41;10.70;99.90
22185;DHT22;11258;52.516;13.318;2023-04-01T04:51:07;10.70;99.90
22185;DHT22;11258;52.516;13.318;2023-04-01T04:53:32;10.70;99.90
22185;DHT22;11258;52.516;13.318;2023-04-01T04:55:58;10.70;99.90
22185;DHT22;11258;52.516;13.318;2023-04-01T04:58:24;10.70;99.90
22185;DHT22;11258;52.516;13.318;2023-04-01T05:00:49;10.70;99.90
22185;DHT22;11258;52.516;13.318;2023-04-01T05:03:15;10.70;99.90
22185;DHT22;11258;52.516;13.318;2023-04-01T05:05:48;10.70;99.90
22185;DHT22;11258;52.516;13.318;2023-04-01T05:08:14;10.70;99.90
22185;DHT22;11258;52.516;13.318;2023-04-01T05:10:40;10.70;99.90
22185;DHT22;11258;52.516;13.318;2023-04-01T05:13:05;10.60;99.90
22185;DHT22;11258;52.516;13.318;2023-04-01T05:15:32;10.60;99.90
22185;DHT22;11258;52.516;13.318;2023-04-01T05:17:57;10.60;99.90
22185;DHT22;11258;52.516;13.318;2023-04-01T05:20:23;10.60;99.90
22185;DHT22;11258;52.516;13.318;2023-04-01T05:22:48;10.60;99.90
22185;DHT22;11258;52.516;13.318;2023-04-01T05:25:14;10.70;99.90
22185;DHT22;11258;52.516;13.318;2023-04-01T05:27:40;10.70;99.90
22185;DHT22;11258;52.516;13.318;2023-04-01T05:30:06;10.70;99.90
22185;DHT22;11258;52.516;13.318;2023-04-01T05:32:32;10.70;99.90
22185;DHT22;11258;52.516;13.318;2023-04-01T05:34:57;10.80;99.90
22185;DHT22;11258;52.516;13.318;2023-04-01T05:37:23;10.70;99.90
22185;DHT22;11258;52.516;13.318;2023-04-01T05:39:49;10.70;99.90
22185;DHT22;11258;52.516;13.318;2023-04-01T05:42:14;10.80;99.90
22185;DHT22;11258;52.516;13.318;2023-04-01T05:44:41;10.80;99.90
22185;DHT22;11258;52.516;13.318;2023-04-01T05:47:06;10.80;99.90
22185;DHT22;11258;52.516;13.318;2023-04-01T05:49:33;10.70;99.90
22185;DHT22;11258;52.516;13.318;2023-04-01T05:51:59;10.80;99.90
22185;DHT22;11258;52.516;13.318;2023-04-01T05:54:24;10.80;99.90
22185;DHT22;11258;52.516;13.318;2023-04-01T05:56:50;10.80;99.90
22185;DHT22;11258;52.516;13.318;2023-04-01T05:59:16;10.80;99.90
22185;DHT22;11258;52.516;13.318;2023-04-01T06:01:41;10.80;99.90
22185;DHT22;11258;52.516;13.318;2023-04-01T06:04:12;10.90;99.90
22185;DHT22;11258;52.516;13.318;2023-04-01T06:06:39;10.90;99.90
22185;DHT22;11258;52.516;13.318;2023-04-01T06:09:26;10.90;99.90
22185;DHT22;11258;52.516;13.318;2023-04-01T06:15:17;11.00;99.90
22185;DHT22;11258;52.516;13.318;2023-04-01T06:38:02;11.00;99.90
22185;DHT22;11258;52.516;13.318;2023-04-01T06:45:56;11.00;99.90
22185;DHT22;11258;52.516;13.318;2023-04-01T06:48:46;11.00;99.90
22185;DHT22;11258;52.516;13.318;2023-04-01T06:54:10;11.10;99.90
22185;DHT22;11258;52.516;13.318;2023-04-01T06:56:40;11.10;99.90
22185;DHT22;11258;52.516;13.318;2023-04-01T06:59:12;11.10;99.90
22185;DHT22;11258;52.516;13.318;2023-04-01T07:01:54;11.10;99.90
22185;DHT22;11258;52.516;13.318;2023-04-01T07:07:21;11.10;99.90
22185;DHT22;11258;52.516;13.318;2023-04-01T07:09:52;11.10;99.90
22185;DHT22;11258;52.516;13.318;2023-04-01T07:14:58;11.20;99.90
22185;DHT22;11258;52.516;13.318;2023-04-01T07:17:33;11.20;99.90
22185;DHT22;11258;52.516;13.318;2023-04-01T07:20:22;11.30;99.90
22185;DHT22;11258;52.516;13.318;2023-04-01T07:22:50;11.40;99.90
22185;DHT22;11258;52.516;13.318;2023-04-01T07:25:17;11.40;99.90
22185;DHT22;11258;52.516;13.318;2023-04-01T07:27:45;11.50;99.90
22185;DHT22;11258;52.516;13.318;2023-04-01T07:30:18;11.60;99.90
22185;DHT22;11258;52.516;13.318;2023-04-01T07:35:24;11.70;99.90
22185;DHT22;11258;52.516;13.318;2023-04-01T07:43:52;11.90;99.90
22185;DHT22;11258;52.516;13.318;2023-04-01T07:46:47;11.90;99.90
22185;DHT22;11258;52.516;13.318;2023-04-01T07:54:46;12.30;99.90
22185;DHT22;11258;52.516;13.318;2023-04-01T07:57:27;12.40;99.90
22185;DHT22;11258;52.516;13.318;2023-04-01T08:00:13;12.50;99.90
22185;DHT22;11258;52.516;13.318;2023-04-01T08:03:26;12.60;99.90
22185;DHT22;11258;52.516;13.318;2023-04-01T08:06:00;12.70;99.90
22185;DHT22;11258;52.516;13.318;2023-04-01T08:11:41;12.80;99.90
22185;DHT22;11258;52.516;13.318;2023-04-01T08:14:32;12.70;99.90
22185;DHT22;11258;52.516;13.318;2023-04-01T08:20:21;12.70;99.90
22185;DHT22;11258;52.516;13.318;2023-04-01T08:22:50;12.60;99.90
22185;DHT22;11258;52.516;13.318;2023-04-01T08:25:21;12.50;99.90
22185;DHT22;11258;52.516;13.318;2023-04-01T08:33:21;12.30;99.90
22185;DHT22;11258;52.516;13.318;2023-04-01T08:38:17;12.00;99.90
22185;DHT22;11258;52.516;13.318;2023-04-01T08:43:39;11.80;99.90
22185;DHT22;11258;52.516;13.318;2023-04-01T08:49:25;11.30;99.90
22185;DHT22;11258;52.516;13.318;2023-04-01T09:06:29;10.50;99.90
22185;DHT22;11258;52.516;13.318;2023-04-01T09:11:38;10.50;99.90
22185;DHT22;11258;52.516;13.318;2023-04-01T09:22:57;10.60;99.90
22185;DHT22;11258;52.516;13.318;2023-04-01T09:28:17;10.80;99.90
22185;DHT22;11258;52.516;13.318;2023-04-01T09:36:46;10.40;99.90
22185;DHT22;11258;52.516;13.318;2023-04-01T09:44:36;10.00;99.90
22185;DHT22;11258;52.516;13.318;2023-04-01T09:52:45;9.70;99.90
22185;DHT22;11258;52.516;13.318;2023-04-01T10:49:21;10.10;99.90
22185;DHT22;11258;52.516;13.318;2023-04-01T11:24:48;9.80;99.90
22185;DHT22;11258;52.516;13.318;2023-04-01T11:27:10;10.00;99.90
22185;DHT22;11258;52.516;13.318;2023-04-01T11:41:14;9.90;99.90
22185;DHT22;11258;52.516;13.318;2023-04-01T11:46:41;9.70;99.90
22185;DHT22;11258;52.516;13.318;2023-04-01T11:49:35;9.60;99.90
22185;DHT22;11258;52.516;13.318;2023-04-01T11:52:07;9.60;99.90
22185;DHT22;11258;52.516;13.318;2023-04-01T11:58:06;9.80;99.90
22185;DHT22;11258;52.516;13.318;2023-04-01T12:01:22;9.80;99.90
22185;DHT22;11258;52.516;13.318;2023-04-01T12:17:09;9.80;99.90
22185;DHT22;11258;52.516;13.318;2023-04-01T12:19:48;9.60;99.90
22185;DHT22;11258;52.516;13.318;2023-04-01T12:30:58;9.20;99.90
22185;DHT22;11258;52.516;13.318;2023-04-01T12:47:59;9.30;99.90
22185;DHT22;11258;52.516;13.318;2023-04-01T12:52:59;9.40;99.90
22185;DHT22;11258;52.516;13.318;2023-04-01T12:55:45;9.30;99.90
22185;DHT22;11258;52.516;13.318;2023-04-01T13:17:46;9.00;99.90
22185;DHT22;11258;52.516;13.318;2023-04-01T13:23:08;9.00;99.90
22185;DHT22;11258;52.516;13.318;2023-04-01T13:28:23;9.10;99.90
22185;DHT22;11258;52.516;13.318;2023-04-01T13:33:50;9.10;99.90
22185;DHT22;11258;52.516;13.318;2023-04-01T13:56:11;8.80;99.90
22185;DHT22;11258;52.516;13.318;2023-04-01T13:58:43;8.60;99.90
22185;DHT22;11258;52.516;13.318;2023-04-01T14:04:03;8.60;99.90
22185;DHT22;11258;52.516;13.318;2023-04-01T14:11:56;8.50;99.90
22185;DHT22;11258;52.516;13.318;2023-04-01T14:20:32;8.30;99.90
22185;DHT22;11258;52.516;13.318;2023-04-01T14:31:48;8.50;99.90
22185;DHT22;11258;52.516;13.318;2023-04-01T14:37:05;8.50;99.90
22185;DHT22;11258;52.516;13.318;2023-04-01T14:47:47;8.30;99.90
22185;DHT22;11258;52.516;13.318;2023-04-01T14:50:18;8.20;99.90
22185;DHT22;11258;52.516;13.318;2023-04-01T14:58:18;8.10;99.90
22185;DHT22;11258;52.516;13.318;2023-04-01T15:05:56;8.20;99.90
22185;DHT22;11258;52.516;13.318;2023-04-01T15:08:32;8.10;99.90
22185;DHT22;11258;52.516;13.318;2023-04-01T15:11:25;8.10;99.90
22185;DHT22;11258;52.516;13.318;2023-04-01T15:14:26;8.20;99.90
22185;DHT22;11258;52.516;13.318;2023-04-01T15:28:44;8.20;99.90
22185;DHT22;11258;52.516;13.318;2023-04-01T15:31:34;8.00;99.90
22185;DHT22;11258;52.516;13.318;2023-04-01T15:35:01;8.00;99.90
22185;DHT22;11258;52.516;13.318;2023-04-01T15:37:23;8.00;99.90
22185;DHT22;11258;52.516;13.318;2023-04-01T15:40:26;7.90;99.90
22185;DHT22;11258;52.516;13.318;2023-04-01T15:45:42;8.00;99.90
22185;DHT22;11258;52.516;13.318;2023-04-01T15:48:35;8.10;99.90
22185;DHT22;11258;52.516;13.318;2023-04-01T15:51:29;8.00;99.90
22185;DHT22;11258;52.516;13.318;2023-04-01T15:59:01;7.80;99.90
22185;DHT22;11258;52.516;13.318;2023-04-01T16:07:43;7.90;99.90
22185;DHT22;11258;52.516;13.318;2023-04-01T16:16:19;7.70;99.90
22185;DHT22;11258;52.516;13.318;2023-04-01T16:22:02;7.50;99.90
22185;DHT22;11258;52.516;13.318;2023-04-01T16:38:22;7.30;99.90
22185;DHT22;11258;52.516;13.318;2023-04-01T16:43:39;7.30;99.90
22185;DHT22;11258;52.516;13.318;2023-04-01T16:51:20;7.20;99.90
22185;DHT22;11258;52.516;13.318;2023-04-01T16:53:52;7.20;99.90
22185;DHT22;11258;52.516;13.318;2023-04-01T16:59:14;7.10;99.90
22185;DHT22;11258;52.516;13.318;2023-04-01T17:07:20;6.90;99.90
22185;DHT22;11258;52.516;13.318;2023-04-01T17:20:40;6.80;99.90
22185;DHT22;11258;52.516;13.318;2023-04-01T17:28:44;6.70;99.90
22185;DHT22;11258;52.516;13.318;2023-04-01T17:36:37;6.50;99.90
22185;DHT22;11258;52.516;13.318;2023-04-01T17:44:44;6.40;99.90
22185;DHT22;11258;52.516;13.318;2023-04-01T17:53:07;6.40;99.90
22185;DHT22;11258;52.516;13.318;2023-04-01T17:55:45;6.50;99.90
22185;DHT22;11258;52.516;13.318;2023-04-01T17:58:18;6.40;99.90
22185;DHT22;11258;52.516;13.318;2023-04-01T18:09:41;6.30;99.90
22185;DHT22;11258;52.516;13.318;2023-04-01T18:15:21;6.00;99.90
22185;DHT22;11258;52.516;13.318;2023-04-01T18:17:55;6.00;99.90
22185;DHT22;11258;52.516;13.318;2023-04-01T18:23:35;6.10;99.90
22185;DHT22;11258;52.516;13.318;2023-04-01T18:26:09;6.10;99.90
22185;DHT22;11258;52.516;13.318;2023-04-01T18:28:43;6.00;99.90
22185;DHT22;11258;52.516;13.318;2023-04-01T18:31:18;6.00;99.90
22185;DHT22;11258;52.516;13.318;2023-04-01T18:36:46;6.00;99.90
22185;DHT22;11258;52.516;13.318;2023-04-01T18:39:22;5.90;99.90
22185;DHT22;11258;52.516;13.318;2023-04-01T18:44:51;6.00;99.90
22185;DHT22;11258;52.516;13.318;2023-04-01T18:47:38;6.10;99.90
22185;DHT22;11258;52.516;13.318;2023-04-01T18:50:27;6.00;99.90
22185;DHT22;11258;52.516;13.318;2023-04-01T18:53:00;5.90;99.90
22185;DHT22;11258;52.516;13.318;2023-04-01T18:55:47;5.90;99.90
22185;DHT22;11258;52.516;13.318;2023-04-01T18:59:01;6.00;99.90
22185;DHT22;11258;52.516;13.318;2023-04-01T19:04:35;5.70;99.90
22185;DHT22;11258;52.516;13.318;2023-04-01T19:07:40;5.70;99.90
22185;DHT22;11258;52.516;13.318;2023-04-01T19:10:21;5.70;99.90
22185;DHT22;11258;52.516;13.318;2023-04-01T19:13:02;5.80;99.90
22185;DHT22;11258;52.516;13.318;2023-04-01T19:15:33;5.90;99.90
22185;DHT22;11258;52.516;13.318;2023-04-01T19:20:51;5.80;99.90
22185;DHT22;11258;52.516;13.318;2023-04-01T19:26:13;5.50;99.90
22185;DHT22;11258;52.516;13.318;2023-04-01T19:32:08;5.60;99.90
22185;DHT22;11258;52.516;13.318;2023-04-01T19:34:51;5.60;99.90
22185;DHT22;11258;52.516;13.318;2023-04-01T19:37:38;5.60;99.90
22185;DHT22;11258;52.516;13.318;2023-04-01T19:43:10;5.50;99.90
22185;DHT22;11258;52.516;13.318;2023-04-01T19:45:57;5.60;99.90
22185;DHT22;11258;52.516;13.318;2023-04-01T19:53:52;5.50;99.90
22185;DHT22;11258;52.516;13.318;2023-04-01T19:56:23;5.40;99.90
22185;DHT22;11258;52.516;13.318;2023-04-01T19:58:55;5.50;99.90
22185;DHT22;11258;52.516;13.318;2023-04-01T20:01:41;5.60;99.90
22185;DHT22;11258;52.516;13.318;2023-04-01T20:04:16;5.40;99.90
22185;DHT22;11258;52.516;13.318;2023-04-01T20:06:57;5.50;99.90
22185;DHT22;11258;52.516;13.318;2023-04-01T20:12:32;5.40;99.90
22185;DHT22;11258;52.516;13.318;2023-04-01T20:17:48;5.20;99.90
22185;DHT22;11258;52.516;13.318;2023-04-01T20:20:34;5.20;99.90
22185;DHT22;11258;52.516;13.318;2023-04-01T20:23:26;5.20;99.90
22185;DHT22;11258;52.516;13.318;2023-04-01T20:26:06;5.10;99.90
22185;DHT22;11258;52.516;13.318;2023-04-01T20:32:18;5.10;99.90
22185;DHT22;11258;52.516;13.318;2023-04-01T20:35:39;5.20;99.90
22185;DHT22;11258;52.516;13.318;2023-04-01T20:37:49;5.20;99.90
22185;DHT22;11258;52.516;13.318;2023-04-01T20:40:33;5.20;99.90
22185;DHT22;11258;52.516;13.318;2023-04-01T20:48:51;5.20;99.90
22185;DHT22;11258;52.516;13.318;2023-04-01T20:51:31;5.20;99.90
22185;DHT22;11258;52.516;13.318;2023-04-01T20:59:24;5.30;99.90
22185;DHT22;11258;52.516;13.318;2023-04-01T21:05:18;5.00;99.90
22185;DHT22;11258;52.516;13.318;2023-04-01T21:27:42;4.90;99.90
22185;DHT22;11258;52.516;13.318;2023-04-01T21:42:09;4.70;99.90
22185;DHT22;11258;52.516;13.318;2023-04-01T22:02:36;4.70;99.90
22185;DHT22;11258;52.516;13.318;2023-04-01T22:05:10;4.70;99.90
22185;DHT22;11258;52.516;13.318;2023-04-01T22:10:41;4.60;99.90
22185;DHT22;11258;52.516;13.318;2023-04-01T22:13:26;4.60;99.90
22185;DHT22;11258;52.516;13.318;2023-04-01T22:26:23;4.70;99.90
22185;DHT22;11258;52.516;13.318;2023-04-01T22:31:30;4.40;99.90
22185;DHT22;11258;52.516;13.318;2023-04-01T22:34:21;4.50;99.90
22185;DHT22;11258;52.516;13.318;2023-04-01T22:37:21;4.50;99.90
22185;DHT22;11258;52.516;13.318;2023-04-01T22:40:07;4.40;99.90
22185;DHT22;11258;52.516;13.318;2023-04-01T22:42:44;4.50;99.90
22185;DHT22;11258;52.516;13.318;2023-04-01T22:48:34;4.60;99.90
22185;DHT22;11258;52.516;13.318;2023-04-01T22:51:26;4.50;99.90
22185;DHT22;11258;52.516;13.318;2023-04-01T22:57:14;4.40;99.90
22185;DHT22;11258;52.516;13.318;2023-04-01T23:04:39;4.50;99.90
22185;DHT22;11258;52.516;13.318;2023-04-01T23:09:56;4.50;99.90
22185;DHT22;11258;52.516;13.318;2023-04-01T23:12:23;4.50;99.90
22185;DHT22;11258;52.516;13.318;2023-04-01T23:14:58;4.40;99.90
22185;DHT22;11258;52.516;13.318;2023-04-01T23:22:39;4.30;99.90
22185;DHT22;11258;52.516;13.318;2023-04-01T23:25:27;4.30;99.90
22185;DHT22;11258;52.516;13.318;2023-04-01T23:33:31;4.40;99.90
22185;DHT22;11258;52.516;13.318;2023-04-01T23:36:14;4.40;99.90
22185;DHT22;11258;52.516;13.318;2023-04-01T23:38:42;4.40;99.90
22185;DHT22;11258;52.516;13.318;2023-04-01T23:41:38;4.40;99.90
22185;DHT22;11258;52.516;13.318;2023-04-01T23:44:10;4.50;99.90
22185;DHT22;11258;52.516;13.318;2023-04-01T23:46:37;4.50;99.90
22185;DHT22;11258;52.516;13.318;2023-04-01T23:49:13;4.50;99.90
22185;DHT22;11258;52.516;13.318;2023-04-01T23:51:51;4.60;99.90
22185;DHT22;11258;52.516;13.318;2023-04-01T23:54:30;4.50;99.90
22185;DHT22;11258;52.516;13.318;2023-04-01T23:56:57;4.50;99.90
22185;DHT22;11258;52.516;13.318;2023-04-01T23:59:43;4.50;99.90
